Time;durP1;ratioP1;P1;durP2;ratioP2;P2;SDS_P1;SDS_P2;PMS_P1;PMS_P2;Temp;Humidity;BMP_temperature;BMP_pressure;BME280_temperature;BME280_humidity;BME280_pressure;Samples;Min_cycle;Max_cycle;Signal;HPM_P1;HPM_P2
2022/08/16 00:02:01;;;;;;;12.38;11.00;;;;;;;21.47;63.20;100484.94;5038992;28;20115;-76
2022/08/16 00:04:27;;;;;;;12.30;11.10;;;;;;;21.44;63.54;100487.97;5028536;28;20112;-76
2022/08/16 00:06:52;;;;;;;12.45;11.15;;;;;;;21.41;63.23;100488.38;5043593;28;20392;-76
2022/08/16 00:09:17;;;;;;;12.70;11.50;;;;;;;21.40;64.22;100497.31;5032585;28;20481;-77
2022/08/16 00:11:44;;;;;;;13.88;12.40;;;;;;;21.36;64.24;100498.72;5040451;28;20024;-77
2022/08/16 00:14:13;;;;;;;12.98;11.60;;;;;;;21.34;63.69;100503.41;5027325;28;20020;-77
2022/08/16 00:16:39;;;;;;;13.82;12.52;;;;;;;21.30;63.75;100508.28;5048263;28;20079;-77
2022/08/16 00:19:05;;;;;;;13.88;12.48;;;;;;;21.26;64.17;100506.19;5041889;28;20025;-77
2022/08/16 00:21:31;;;;;;;13.82;12.45;;;;;;;21.32;63.52;100505.41;5037300;28;20036;-77
2022/08/16 00:23:57;;;;;;;12.93;11.63;;;;;;;21.24;63.63;100498.50;5028611;28;20481;-77
2022/08/16 00:26:22;;;;;;;13.25;11.93;;;;;;;21.31;63.50;100503.81;5024366;28;20059;-77
2022/08/16 00:28:48;;;;;;;13.00;11.60;;;;;;;21.24;63.45;100497.69;5042747;28;20048;-77
2022/08/16 00:31:13;;;;;;;13.15;11.88;;;;;;;21.20;63.89;100508.63;5037825;28;20464;-78
2022/08/16 00:33:39;;;;;;;14.00;12.50;;;;;;;21.24;63.43;100500.34;5038031;28;20128;-77
2022/08/16 00:36:04;;;;;;;13.27;12.05;;;;;;;21.20;64.24;100508.63;5016804;28;20110;-77
2022/08/16 00:38:30;;;;;;;13.57;12.27;;;;;;;21.21;63.65;100499.69;5029270;28;20736;-78
2022/08/16 00:40:56;;;;;;;13.32;11.98;;;;;;;21.18;63.82;100508.03;5023826;28;20021;-78
2022/08/16 00:43:25;;;;;;;13.20;11.90;;;;;;;21.13;63.79;100507.03;5036650;28;20477;-77
2022/08/16 00:46:01;;;;;;;14.50;13.00;;;;;;;20.93;65.15;100512.25;5031285;28;20041;-77
2022/08/16 00:48:29;;;;;;;15.18;13.63;;;;;;;20.96;65.19;100517.13;5030644;28;20025;-77
2022/08/16 00:50:55;;;;;;;15.02;13.52;;;;;;;21.03;64.48;100517.16;5034631;28;20474;-77
2022/08/16 00:53:21;;;;;;;16.77;14.80;;;;;;;20.99;64.70;100508.84;5043634;28;20041;-77
2022/08/16 00:55:52;;;;;;;16.25;14.63;;;;;;;20.98;64.74;100514.28;5019181;28;20030;-77
2022/08/16 00:58:21;;;;;;;15.80;14.50;;;;;;;21.01;64.55;100514.72;5034737;28;20119;-77
2022/08/16 01:00:46;;;;;;;;;;;;;;;21.20;63.12;100519.19;5038562;28;20619;-77
2022/08/16 01:03:14;;;;;;;15.82;14.25;;;;;;;20.93;64.55;100512.25;5039784;28;20007;-77
2022/08/16 01:05:40;;;;;;;;;;;;;;;21.19;63.25;100522.84;5038174;28;20032;-77
2022/08/16 01:08:08;;;;;;;14.80;13.38;;;;;;;20.95;64.51;100511.06;5028526;28;19919;-77
2022/08/16 01:10:34;;;;;;;16.23;14.50;;;;;;;20.98;64.79;100512.47;5043648;28;20037;-78
2022/08/16 01:13:22;;;;;;;14.85;13.43;;;;;;;20.97;64.41;100513.47;5046354;28;20336;-78
2022/08/16 01:15:54;;;;;;;14.70;13.20;;;;;;;20.85;65.19;100499.28;5044073;28;20082;-77
2022/08/16 01:18:23;;;;;;;14.55;13.25;;;;;;;20.86;65.13;100501.69;5029864;28;20290;-78
2022/08/16 01:21:08;;;;;;;14.23;12.95;;;;;;;20.85;65.03;100515.09;5030446;28;20045;-77
2022/08/16 01:23:56;;;;;;;14.68;13.38;;;;;;;20.80;65.24;100512.25;5045780;28;20414;-77
2022/08/16 01:26:25;;;;;;;14.43;13.02;;;;;;;20.79;65.19;100505.34;5038019;28;20078;-77
2022/08/16 01:28:51;;;;;;;15.18;13.77;;;;;;;20.78;65.66;100506.38;5035969;28;20036;-77
2022/08/16 01:31:19;;;;;;;14.95;13.55;;;;;;;20.74;65.56;100503.31;5039927;28;20033;-78
2022/08/16 01:33:44;;;;;;;15.40;14.10;;;;;;;20.66;65.82;100501.66;5031491;28;20485;-78
2022/08/16 01:36:09;;;;;;;14.95;13.40;;;;;;;20.68;65.57;100509.38;5027708;28;20037;-78
2022/08/16 01:38:42;;;;;;;15.52;14.13;;;;;;;20.67;65.73;100505.94;5027023;28;20132;-77
2022/08/16 01:41:17;;;;;;;15.80;14.30;;;;;;;20.64;65.89;100514.25;5040962;28;20071;-77
2022/08/16 01:43:45;;;;;;;16.25;14.75;;;;;;;20.66;66.12;100506.94;5034298;28;20104;-77
2022/08/16 01:46:29;;;;;;;16.48;14.98;;;;;;;20.54;66.33;100507.72;5044081;28;20361;-77
2022/08/16 01:48:58;;;;;;;16.42;15.00;;;;;;;20.45;66.64;100499.13;5044046;28;20119;-78
2022/08/16 01:51:26;;;;;;;16.02;14.52;;;;;;;20.47;66.76;100507.69;5036833;28;20544;-78
2022/08/16 01:53:51;;;;;;;16.25;14.75;;;;;;;20.39;67.36;100497.28;5036870;28;20041;-77
2022/08/16 01:56:18;;;;;;;16.42;15.02;;;;;;;20.31;67.99;100513.28;5038503;28;20075;-78
2022/08/16 01:58:44;;;;;;;17.02;15.43;;;;;;;20.36;67.64;100510.88;5044453;28;20044;-77
2022/08/16 02:01:10;;;;;;;17.33;15.73;;;;;;;20.39;67.19;100510.47;5036117;28;20024;-78
2022/08/16 02:03:35;;;;;;;17.13;15.52;;;;;;;20.37;67.25;100507.22;5017765;28;20083;-77
2022/08/16 02:06:01;;;;;;;18.02;15.80;;;;;;;20.31;67.71;100498.28;5033966;28;20021;-77
2022/08/16 02:08:26;;;;;;;17.10;15.43;;;;;;;20.34;67.66;100497.06;5039681;28;20504;-78
2022/08/16 02:10:53;;;;;;;16.58;15.07;;;;;;;20.31;67.59;100508.03;5044548;28;20070;-77
2022/08/16 02:13:20;;;;;;;17.00;15.40;;;;;;;20.21;68.42;100510.19;5018106;28;20032;-77
2022/08/16 02:15:46;;;;;;;17.23;15.63;;;;;;;20.24;68.18;100507.16;5031356;28;20449;-77
2022/08/16 02:18:11;;;;;;;17.08;15.48;;;;;;;20.22;67.80;100503.91;5049181;28;20032;-77
2022/08/16 02:20:38;;;;;;;17.02;15.43;;;;;;;20.20;67.71;100501.47;5037185;28;20090;-77
2022/08/16 02:23:05;;;;;;;17.20;15.73;;;;;;;20.22;67.88;100509.19;5045436;28;20409;-77
2022/08/16 02:25:30;;;;;;;18.02;16.25;;;;;;;20.04;68.58;100496.53;5037371;28;20484;-77
2022/08/16 02:27:56;;;;;;;17.92;16.23;;;;;;;20.02;68.90;100503.84;5041098;28;20048;-79
2022/08/16 02:30:24;;;;;;;17.80;16.20;;;;;;;20.05;68.76;100504.25;5034742;28;20032;-77
2022/08/16 02:32:49;;;;;;;;;;;;;;;20.30;66.89;100503.72;5042170;28;20049;-77
2022/08/16 02:35:16;;;;;;;18.65;16.88;;;;;;;20.07;68.32;100502.25;5048113;28;20150;-78
2022/08/16 02:37:41;;;;;;;20.30;18.17;;;;;;;19.96;69.40;100496.72;5039712;28;20032;-77
2022/08/16 02:40:09;;;;;;;20.17;18.38;;;;;;;19.85;69.94;100492.81;5029350;28;20070;-78
2022/08/16 02:42:35;;;;;;;20.85;19.05;;;;;;;19.84;69.76;100489.38;5043613;28;20123;-77
2022/08/16 02:45:00;;;;;;;21.88;19.85;;;;;;;19.74;69.81;100482.81;5049187;28;20100;-78
2022/08/16 02:47:26;;;;;;;20.77;19.00;;;;;;;19.72;70.34;100487.44;5049533;28;20131;-78
2022/08/16 02:49:51;;;;;;;21.85;19.85;;;;;;;19.75;70.69;100481.81;5049088;28;20033;-77
2022/08/16 02:52:17;;;;;;;22.85;20.85;;;;;;;19.56;71.03;100491.97;5037551;28;20802;-77
2022/08/16 02:54:42;;;;;;;22.25;20.38;;;;;;;19.49;71.78;100493.72;5036084;28;20017;-77
2022/08/16 02:57:08;;;;;;;22.55;20.55;;;;;;;19.52;71.45;100493.38;5034151;28;20370;-77
2022/08/16 02:59:33;;;;;;;22.95;20.85;;;;;;;19.48;71.44;100486.03;5038322;28;20039;-77
2022/08/16 03:01:59;;;;;;;21.92;19.98;;;;;;;19.50;72.06;100498.00;5034808;28;20025;-77
2022/08/16 03:04:25;;;;;;;21.70;19.75;;;;;;;19.57;71.21;100495.44;5040571;28;20033;-77
2022/08/16 03:06:52;;;;;;;21.80;19.80;;;;;;;19.52;71.50;100488.09;5046488;28;20028;-78
2022/08/16 03:09:17;;;;;;;21.80;19.83;;;;;;;19.43;72.05;100483.97;5048183;28;20025;-77
2022/08/16 03:11:43;;;;;;;20.85;18.95;;;;;;;19.38;71.75;100486.38;5029099;28;20025;-77
2022/08/16 03:14:10;;;;;;;21.23;19.33;;;;;;;19.41;72.34;100480.75;5043356;28;20033;-77
2022/08/16 03:16:35;;;;;;;21.05;19.15;;;;;;;19.45;71.15;100484.63;5030388;28;20042;-77
2022/08/16 03:19:01;;;;;;;20.98;19.00;;;;;;;19.47;71.36;100487.84;5030556;28;20142;-77
2022/08/16 03:21:27;;;;;;;21.00;19.02;;;;;;;19.49;70.87;100483.22;5045236;28;20048;-78
2022/08/16 03:23:53;;;;;;;21.83;20.00;;;;;;;19.44;71.67;100483.00;5043179;28;20041;-78
2022/08/16 03:26:19;;;;;;;21.65;19.63;;;;;;;19.42;71.42;100482.34;5039877;28;20044;-77
2022/08/16 03:28:44;;;;;;;21.63;19.65;;;;;;;19.41;70.97;100486.00;5039775;28;20029;-77
2022/08/16 03:31:10;;;;;;;22.17;20.27;;;;;;;19.45;71.27;100483.81;5040331;28;20043;-77
2022/08/16 03:33:35;;;;;;;21.95;20.05;;;;;;;19.40;71.66;100487.00;5044172;28;20155;-77
2022/08/16 03:36:02;;;;;;;22.27;20.15;;;;;;;19.44;71.01;100484.78;5045422;28;20465;-78
2022/08/16 03:38:29;;;;;;;22.35;20.40;;;;;;;19.48;70.72;100484.22;5047933;28;20036;-77
2022/08/16 03:40:56;;;;;;;23.15;21.23;;;;;;;19.40;71.28;100484.38;5018556;28;20179;-77
2022/08/16 03:43:23;;;;;;;23.67;21.58;;;;;;;19.35;71.39;100486.75;5028269;28;20088;-77
2022/08/16 03:45:54;;;;;;;23.45;21.35;;;;;;;19.37;71.24;100496.06;5036952;28;20035;-78
2022/08/16 03:48:22;;;;;;;23.98;21.77;;;;;;;19.31;71.68;100496.03;5048516;28;20029;-78
2022/08/16 03:50:47;;;;;;;23.42;21.30;;;;;;;19.32;71.70;100487.13;5036248;28;20040;-77
2022/08/16 03:53:13;;;;;;;23.75;21.65;;;;;;;19.23;72.05;100489.09;5031235;28;20025;-77
2022/08/16 03:55:39;;;;;;;23.52;21.33;;;;;;;19.31;71.70;100506.53;5033279;28;20071;-77
2022/08/16 03:58:04;;;;;;;24.27;22.08;;;;;;;19.20;72.60;100509.69;5038508;28;20037;-77
2022/08/16 04:00:30;;;;;;;26.17;24.00;;;;;;;18.98;73.59;100512.34;5044310;28;20028;-77
2022/08/16 04:03:01;;;;;;;25.65;23.55;;;;;;;18.77;74.21;100515.75;5031983;28;20112;-77
2022/08/16 04:05:27;;;;;;;25.35;23.23;;;;;;;18.87;73.84;100520.72;5033817;28;20021;-78
2022/08/16 04:07:52;;;;;;;25.70;23.50;;;;;;;18.79;74.20;100512.94;5042620;28;20586;-78
2022/08/16 04:10:17;;;;;;;26.65;24.33;;;;;;;18.78;74.54;100511.31;5040557;28;20470;-77
2022/08/16 04:12:44;;;;;;;25.52;23.23;;;;;;;18.73;74.78;100518.94;5026986;28;20024;-77
2022/08/16 04:15:14;;;;;;;25.63;23.45;;;;;;;18.49;75.65;100518.25;5045113;28;20626;-77
2022/08/16 04:17:41;;;;;;;25.50;23.17;;;;;;;18.70;74.77;100514.06;5047774;28;20104;-77
2022/08/16 04:20:07;;;;;;;24.35;22.25;;;;;;;18.81;74.68;100531.97;5047260;28;20146;-77
2022/08/16 04:22:33;;;;;;;25.88;23.63;;;;;;;18.70;75.28;100532.47;5034236;28;20025;-78
2022/08/16 04:24:59;;;;;;;25.10;22.70;;;;;;;18.72;74.99;100522.56;5028671;28;20029;-77
2022/08/16 04:27:25;;;;;;;24.33;22.10;;;;;;;18.80;74.37;100525.06;5042478;28;20617;-78
2022/08/16 04:29:51;;;;;;;23.63;21.63;;;;;;;18.87;74.19;100531.22;5026881;28;20587;-78
2022/08/16 04:32:16;;;;;;;22.75;20.85;;;;;;;18.89;73.71;100533.66;5034890;28;20036;-77
2022/08/16 04:34:41;;;;;;;22.85;20.83;;;;;;;18.83;74.55;100541.28;5044360;28;20063;-78
2022/08/16 04:37:07;;;;;;;22.23;20.30;;;;;;;18.91;74.09;100542.97;5022833;28;20461;-77
2022/08/16 04:39:34;;;;;;;23.00;20.73;;;;;;;18.74;75.11;100536.31;5031730;28;20030;-77
2022/08/16 04:42:00;;;;;;;22.70;20.67;;;;;;;18.85;74.38;100533.22;5035810;28;20036;-78
2022/08/16 04:44:25;;;;;;;23.17;21.08;;;;;;;18.89;74.84;100539.72;5031516;28;20033;-77
2022/08/16 04:46:52;;;;;;;23.90;21.65;;;;;;;18.91;74.40;100547.41;5042739;28;20113;-77
2022/08/16 04:49:18;;;;;;;23.33;21.08;;;;;;;18.85;74.79;100546.34;5025705;28;20483;-77
2022/08/16 04:51:43;;;;;;;23.50;21.27;;;;;;;18.88;74.09;100540.75;5041368;28;20028;-78
2022/08/16 04:54:09;;;;;;;24.67;22.42;;;;;;;18.94;74.34;100553.13;5038767;28;20430;-78
2022/08/16 04:56:35;;;;;;;23.52;21.48;;;;;;;18.79;75.00;100545.28;5024514;28;20064;-77
2022/08/16 04:59:01;;;;;;;24.65;22.35;;;;;;;18.67;75.85;100553.81;5028545;28;20037;-78
2022/08/16 05:01:26;;;;;;;24.80;22.40;;;;;;;18.74;75.38;100552.91;5045984;28;20523;-76
2022/08/16 05:03:52;;;;;;;25.20;22.95;;;;;;;18.73;75.60;100546.03;5040781;28;20103;-77
2022/08/16 05:06:18;;;;;;;25.02;22.67;;;;;;;18.69;76.04;100549.19;5040109;28;20389;-77
2022/08/16 05:08:43;;;;;;;26.35;23.88;;;;;;;18.60;76.29;100550.28;5042331;28;20027;-77
2022/08/16 05:11:11;;;;;;;26.33;22.65;;;;;;;18.62;76.15;100549.09;5035384;28;20535;-76
2022/08/16 05:13:41;;;;;;;25.27;22.98;;;;;;;18.60;76.69;100560.81;5034563;28;20036;-77
2022/08/16 05:16:08;;;;;;;26.88;24.38;;;;;;;18.57;76.38;100562.78;5046094;28;20033;-77
2022/08/16 05:18:35;;;;;;;26.70;24.23;;;;;;;18.60;76.78;100558.16;5041817;28;20029;-77
2022/08/16 05:21:01;;;;;;;26.83;24.38;;;;;;;18.66;76.68;100560.06;5046560;28;20544;-77
2022/08/16 05:23:26;;;;;;;25.27;22.98;;;;;;;18.80;74.83;100561.84;5044997;28;20053;-77
2022/08/16 05:25:51;;;;;;;25.10;22.88;;;;;;;18.87;74.63;100572.44;5019517;28;20387;-77
2022/08/16 05:28:17;;;;;;;25.63;23.38;;;;;;;18.88;74.79;100574.91;5039369;28;20045;-77
2022/08/16 05:30:43;;;;;;;26.38;24.17;;;;;;;18.97;74.68;100584.28;5024378;28;20057;-78
2022/08/16 05:33:09;;;;;;;26.20;23.90;;;;;;;19.04;73.74;100574.69;5027982;28;20422;-77
2022/08/16 05:35:35;;;;;;;27.45;25.05;;;;;;;18.82;75.77;100568.56;5031813;28;20043;-78
2022/08/16 05:38:00;;;;;;;27.67;24.98;;;;;;;19.01;74.65;100575.03;5039177;28;20584;-78
2022/08/16 05:40:26;;;;;;;27.00;24.70;;;;;;;19.07;74.47;100579.53;5040485;28;20021;-78
2022/08/16 05:42:52;;;;;;;27.58;25.17;;;;;;;19.05;74.66;100573.66;5045386;28;20028;-78
2022/08/16 05:45:17;;;;;;;26.58;24.38;;;;;;;19.17;73.67;100584.50;5037699;28;20483;-76
2022/08/16 05:47:43;;;;;;;26.92;24.52;;;;;;;19.23;73.75;100588.19;5045750;28;20025;-77
2022/08/16 05:50:09;;;;;;;28.42;25.85;;;;;;;19.03;75.10;100573.03;5035168;28;20355;-78
2022/08/16 05:52:35;;;;;;;28.38;25.83;;;;;;;19.12;74.35;100591.31;5037735;28;20056;-77
2022/08/16 05:55:00;;;;;;;28.42;25.90;;;;;;;19.17;74.09;100581.06;5033482;28;20453;-76
2022/08/16 05:57:27;;;;;;;28.08;25.83;;;;;;;19.05;75.16;100576.31;5017301;28;20041;-76
2022/08/16 05:59:52;;;;;;;30.73;28.00;;;;;;;19.06;75.26;100583.19;5026416;28;20380;-76
2022/08/16 06:02:20;;;;;;;29.63;27.13;;;;;;;19.07;75.53;100584.81;5042113;28;20387;-77
2022/08/16 06:04:46;;;;;;;28.58;26.17;;;;;;;19.10;75.25;100581.81;5043142;28;20060;-78
2022/08/16 06:07:11;;;;;;;29.83;27.27;;;;;;;19.16;75.52;100587.34;5041549;28;20060;-76
2022/08/16 06:09:37;;;;;;;30.70;28.17;;;;;;;19.18;75.45;100577.44;5041700;28;20034;-77
2022/08/16 06:12:02;;;;;;;29.50;27.00;;;;;;;19.34;74.28;100579.81;5036569;28;20453;-77
2022/08/16 06:14:29;;;;;;;30.73;28.10;;;;;;;19.27;75.13;100578.94;5039361;28;20389;-77
2022/08/16 06:16:54;;;;;;;30.50;27.80;;;;;;;19.33;75.28;100578.19;5035193;28;20043;-78
2022/08/16 06:19:20;;;;;;;31.55;28.85;;;;;;;19.41;75.28;100596.47;5032230;28;20026;-77
2022/08/16 06:21:46;;;;;;;29.98;27.38;;;;;;;19.48;75.05;100592.06;5027892;28;20017;-77
2022/08/16 06:24:11;;;;;;;29.88;27.30;;;;;;;19.54;74.22;100575.53;5029653;28;20037;-78
2022/08/16 06:26:37;;;;;;;30.75;28.15;;;;;;;19.60;74.33;100580.06;5038580;28;20049;-78
2022/08/16 06:29:02;;;;;;;31.48;28.63;;;;;;;19.61;74.16;100597.50;5031920;28;20033;-78
2022/08/16 06:31:27;;;;;;;30.33;27.70;;;;;;;19.66;74.15;100591.63;5030277;28;20378;-78
2022/08/16 06:33:53;;;;;;;29.60;27.20;;;;;;;19.76;73.24;100599.22;5042669;28;20585;-77
2022/08/16 06:36:18;;;;;;;29.98;27.52;;;;;;;19.78;73.21;100592.75;5049629;28;20041;-78
2022/08/16 06:38:44;;;;;;;29.55;27.13;;;;;;;19.91;72.78;100586.78;5044091;28;20063;-78
2022/08/16 06:41:10;;;;;;;29.45;26.95;;;;;;;20.09;72.12;100600.28;5033061;28;20533;-77
2022/08/16 06:43:36;;;;;;;28.75;26.25;;;;;;;20.06;72.68;100605.91;5040249;28;20112;-77
2022/08/16 06:46:04;;;;;;;30.05;27.55;;;;;;;20.11;72.46;100613.22;5035617;28;20036;-77
2022/08/16 06:48:31;;;;;;;30.63;28.02;;;;;;;20.11;72.94;100592.97;5036056;28;20029;-76
2022/08/16 06:50:57;;;;;;;30.48;27.98;;;;;;;20.12;72.21;100599.88;5030221;28;20057;-77
2022/08/16 06:53:22;;;;;;;30.38;27.77;;;;;;;20.28;72.33;100605.84;5029100;28;20420;-76
2022/08/16 06:55:48;;;;;;;31.17;28.48;;;;;;;20.19;71.92;100605.19;5030724;28;20560;-77
2022/08/16 06:58:13;;;;;;;31.63;28.92;;;;;;;20.31;71.61;100613.38;5027200;28;20021;-77
2022/08/16 07:00:38;;;;;;;31.52;28.73;;;;;;;20.26;72.41;100616.56;5044317;28;20032;-78
2022/08/16 07:03:05;;;;;;;32.50;29.60;;;;;;;20.32;71.63;100609.72;5037939;28;20037;-78
2022/08/16 07:05:31;;;;;;;31.45;28.80;;;;;;;20.39;71.59;100615.84;5032297;28;20519;-77
2022/08/16 07:07:57;;;;;;;33.05;30.20;;;;;;;20.45;71.29;100619.50;5030474;28;20468;-77
2022/08/16 07:10:24;;;;;;;32.17;29.50;;;;;;;20.62;71.03;100621.66;5029141;28;20393;-78
2022/08/16 07:12:50;;;;;;;32.17;29.38;;;;;;;20.73;70.11;100622.13;5029945;28;20507;-76
2022/08/16 07:15:18;;;;;;;31.65;29.00;;;;;;;20.83;69.75;100627.84;5028985;28;20029;-78
2022/08/16 07:17:45;;;;;;;32.70;29.98;;;;;;;20.74;70.46;100623.72;5031892;28;20385;-77
2022/08/16 07:20:12;;;;;;;33.75;30.83;;;;;;;20.87;70.38;100634.31;5042297;28;20020;-77
2022/08/16 07:22:38;;;;;;;32.47;29.60;;;;;;;20.98;69.37;100620.56;5034334;28;20037;-78
2022/08/16 07:25:06;;;;;;;31.95;29.27;;;;;;;21.14;69.04;100627.31;5037408;28;20465;-78
2022/08/16 07:27:31;;;;;;;32.42;29.63;;;;;;;21.25;68.82;100625.94;5029861;28;20045;-78
2022/08/16 07:29:57;;;;;;;33.00;30.15;;;;;;;21.26;68.68;100628.34;5031582;28;20033;-77
2022/08/16 07:32:22;;;;;;;32.17;29.25;;;;;;;21.36;68.07;100628.00;5036465;28;20445;-78
2022/08/16 07:34:47;;;;;;;33.25;30.50;;;;;;;21.49;67.67;100633.28;5040008;28;20025;-78
2022/08/16 07:37:13;;;;;;;31.95;29.35;;;;;;;21.53;68.25;100631.06;5031743;28;20441;-77
2022/08/16 07:39:39;;;;;;;29.77;27.27;;;;;;;21.57;68.13;100625.19;5034253;28;20030;-78
2022/08/16 07:42:05;;;;;;;30.90;28.20;;;;;;;21.63;67.11;100640.22;5037422;28;20151;-77
2022/08/16 07:44:31;;;;;;;31.02;28.27;;;;;;;21.67;66.73;100641.44;5013264;28;20037;-77
2022/08/16 07:46:56;;;;;;;30.42;27.80;;;;;;;21.73;66.67;100651.19;5035649;28;20020;-77
2022/08/16 07:49:23;;;;;;;30.15;27.50;;;;;;;21.96;66.52;100649.97;5032380;28;20032;-78
2022/08/16 07:51:49;;;;;;;29.27;26.83;;;;;;;22.09;66.01;100652.59;5020096;28;20480;-77
2022/08/16 07:54:15;;;;;;;29.25;26.77;;;;;;;22.18;65.57;100646.09;5028773;28;20021;-78
2022/08/16 07:56:40;;;;;;;30.75;27.95;;;;;;;22.13;65.06;100648.56;5034515;28;20021;-77
2022/08/16 07:59:06;;;;;;;31.13;28.45;;;;;;;22.20;65.22;100646.72;5036984;28;20021;-77
2022/08/16 08:01:31;;;;;;;31.08;28.08;;;;;;;22.36;64.78;100652.56;5031912;28;20522;-77
2022/08/16 08:03:57;;;;;;;31.08;28.27;;;;;;;22.33;64.98;100647.72;5040777;28;20480;-77
2022/08/16 08:06:29;;;;;;;31.23;28.42;;;;;;;22.50;64.76;100657.63;5037339;28;20033;-77
2022/08/16 08:08:55;;;;;;;31.00;28.23;;;;;;;22.41;64.68;100663.34;5037710;28;20370;-77
2022/08/16 08:11:22;;;;;;;29.70;27.20;;;;;;;22.55;65.11;100670.25;5042175;28;20059;-77
2022/08/16 08:13:50;;;;;;;31.73;28.92;;;;;;;22.63;64.92;100656.78;5047672;28;20047;-77
2022/08/16 08:16:15;;;;;;;30.98;28.05;;;;;;;22.67;64.92;100658.00;5023010;28;20401;-78
2022/08/16 08:18:40;;;;;;;29.52;26.92;;;;;;;22.91;64.40;100647.75;5044688;28;20036;-77
2022/08/16 08:21:08;;;;;;;30.10;27.50;;;;;;;22.86;64.02;100656.28;5040133;28;20029;-77
2022/08/16 08:23:35;;;;;;;28.60;26.10;;;;;;;23.11;62.91;100661.72;5022765;28;20071;-77
2022/08/16 08:26:02;;;;;;;27.85;25.40;;;;;;;23.14;62.74;100674.50;5029262;28;20025;-77
2022/08/16 08:28:29;;;;;;;29.08;26.48;;;;;;;23.15;62.45;100670.84;5015759;28;20060;-77
2022/08/16 08:30:55;;;;;;;27.08;24.85;;;;;;;23.30;62.52;100678.50;5027235;28;20162;-77
2022/08/16 08:33:20;;;;;;;28.95;26.35;;;;;;;23.23;62.87;100678.53;5045852;28;20107;-77
2022/08/16 08:35:45;;;;;;;29.77;27.08;;;;;;;23.26;62.71;100675.47;5046061;28;20464;-77
2022/08/16 08:38:11;;;;;;;29.33;26.92;;;;;;;23.26;62.32;100678.09;5040580;28;20144;-76
2022/08/16 08:40:37;;;;;;;26.00;23.63;;;;;;;23.50;61.28;100678.38;5028184;28;20021;-77
2022/08/16 08:43:03;;;;;;;24.20;21.98;;;;;;;23.56;60.31;100677.50;5033197;28;20744;-77
2022/08/16 08:45:29;;;;;;;28.85;26.33;;;;;;;23.54;60.11;100675.09;5040279;28;20048;-78
2022/08/16 08:47:55;;;;;;;24.67;22.45;;;;;;;23.74;60.17;100668.84;5032685;28;20056;-78
2022/08/16 08:50:21;;;;;;;24.52;22.17;;;;;;;23.91;60.24;100679.72;5035818;28;20618;-79
2022/08/16 08:52:50;;;;;;;24.77;22.58;;;;;;;23.87;59.47;100674.06;5028923;28;20531;-78
2022/08/16 08:55:17;;;;;;;23.10;20.85;;;;;;;24.07;59.37;100677.34;5030338;28;20124;-78
2022/08/16 08:57:45;;;;;;;24.42;22.13;;;;;;;23.95;59.42;100672.97;5027438;28;20034;-78
2022/08/16 09:00:13;;;;;;;22.92;20.92;;;;;;;24.20;59.37;100689.69;5019275;28;20037;-78
2022/08/16 09:02:39;;;;;;;22.52;20.48;;;;;;;24.30;58.84;100678.56;5023506;28;20033;-78
2022/08/16 09:05:05;;;;;;;22.70;20.58;;;;;;;24.28;57.74;100692.03;5033644;28;20063;-78
2022/08/16 09:07:31;;;;;;;22.50;20.23;;;;;;;24.44;57.56;100695.19;5035819;28;20052;-78
2022/08/16 09:09:56;;;;;;;22.33;20.25;;;;;;;24.42;57.71;100691.94;5045968;28;20025;-78
2022/08/16 09:12:22;;;;;;;22.75;20.60;;;;;;;24.40;58.10;100696.66;5043317;28;20030;-79
2022/08/16 09:14:47;;;;;;;21.15;18.98;;;;;;;24.55;57.93;100683.88;5033130;28;20567;-78
2022/08/16 09:17:13;;;;;;;21.13;19.23;;;;;;;24.76;56.24;100691.34;5046294;28;20822;-79
2022/08/16 09:19:39;;;;;;;21.10;18.95;;;;;;;24.84;56.06;100701.69;5015504;28;20025;-79
2022/08/16 09:22:05;;;;;;;19.95;17.98;;;;;;;25.01;55.77;100701.88;5024164;28;20503;-79
2022/08/16 09:24:32;;;;;;;19.58;17.80;;;;;;;25.08;54.47;100697.34;5029811;28;20025;-76
2022/08/16 09:26:57;;;;;;;17.58;15.98;;;;;;;25.14;54.17;100696.44;5028976;28;20037;-77
2022/08/16 09:29:23;;;;;;;18.95;16.95;;;;;;;25.05;54.50;100695.13;5028421;28;20027;-75
2022/08/16 09:31:48;;;;;;;19.17;17.23;;;;;;;24.92;54.99;100697.09;5031537;28;20457;-75
2022/08/16 09:34:14;;;;;;;20.35;18.38;;;;;;;24.88;55.24;100694.88;5034127;28;20457;-77
2022/08/16 09:36:40;;;;;;;16.88;15.38;;;;;;;24.97;55.25;100705.22;5017237;28;20168;-78
2022/08/16 09:39:06;;;;;;;16.02;14.52;;;;;;;25.18;55.42;100707.44;5036643;28;20481;-80
2022/08/16 09:41:32;;;;;;;15.75;14.23;;;;;;;25.37;54.29;100709.00;5042287;28;20543;-78
2022/08/16 09:43:58;;;;;;;16.77;15.18;;;;;;;25.41;54.70;100718.13;5021800;28;20052;-78
2022/08/16 09:46:24;;;;;;;16.60;15.10;;;;;;;25.51;53.91;100712.25;5030159;28;20559;-78
2022/08/16 09:48:51;;;;;;;16.77;15.18;;;;;;;25.57;53.65;100710.53;5038570;28;20452;-79
2022/08/16 09:51:17;;;;;;;18.10;16.15;;;;;;;25.57;54.05;100721.97;5029342;28;20048;-78
2022/08/16 09:53:44;;;;;;;18.33;16.67;;;;;;;25.71;54.73;100719.94;5037472;28;20052;-79
2022/08/16 09:56:24;;;;;;;17.40;15.70;;;;;;;25.84;54.60;100722.44;5042742;28;20073;-79
2022/08/16 09:58:49;;;;;;;19.88;17.92;;;;;;;25.62;53.92;100721.31;5044714;28;20017;-78
2022/08/16 10:01:15;;;;;;;16.90;15.25;;;;;;;25.84;52.94;100718.97;5044007;28;20028;-79
2022/08/16 10:03:40;;;;;;;17.17;15.55;;;;;;;25.97;52.14;100717.94;5037215;28;20500;-79
2022/08/16 10:06:06;;;;;;;19.08;15.50;;;;;;;26.10;52.05;100720.41;5040350;28;20082;-79
2022/08/16 10:08:31;;;;;;;17.63;15.82;;;;;;;25.94;53.22;100706.75;5045021;28;20062;-79
2022/08/16 10:13:43;;;;;;;29.00;14.50;;;;;;;26.28;52.18;100712.31;5036353;28;20044;-78
2022/08/16 10:16:12;;;;;;;14.45;12.68;;;;;;;26.41;51.71;100716.59;5045275;28;20037;-79
2022/08/16 10:18:39;;;;;;;15.52;14.00;;;;;;;26.30;51.64;100712.88;5044773;28;20472;-79
2022/08/16 10:21:05;;;;;;;15.30;13.90;;;;;;;26.36;51.22;100714.59;5016234;28;20064;-79
2022/08/16 10:23:31;;;;;;;16.65;15.02;;;;;;;26.29;51.52;100713.09;5040976;28;20019;-79
2022/08/16 10:25:57;;;;;;;14.38;13.07;;;;;;;26.46;51.28;100720.19;5043903;28;20373;-79
2022/08/16 10:28:24;;;;;;;13.93;12.35;;;;;;;26.56;51.21;100713.47;5042569;28;20290;-80
2022/08/16 10:30:50;;;;;;;13.48;12.18;;;;;;;26.63;51.39;100711.50;5045347;28;20079;-78
2022/08/16 10:33:15;;;;;;;14.27;12.95;;;;;;;26.58;50.61;100716.69;5045371;28;20461;-79
2022/08/16 10:35:42;;;;;;;14.43;12.93;;;;;;;26.75;50.65;100728.25;5039709;28;20377;-79
2022/08/16 10:38:07;;;;;;;14.30;12.07;;;;;;;26.76;50.10;100723.72;5043691;28;20033;-79
2022/08/16 10:40:33;;;;;;;14.13;12.70;;;;;;;26.83;50.10;100714.56;5033211;28;20042;-78
2022/08/16 10:42:59;;;;;;;14.05;12.68;;;;;;;26.97;51.56;100715.94;5036190;28;20029;-79
2022/08/16 10:45:26;;;;;;;15.60;14.07;;;;;;;26.96;49.97;100722.28;5041722;28;20465;-79
2022/08/16 10:47:52;;;;;;;14.20;12.90;;;;;;;27.08;50.23;100721.47;5045727;28;20036;-79
2022/08/16 10:50:18;;;;;;;14.77;13.27;;;;;;;27.18;49.34;100732.31;5037098;28;20052;-79
2022/08/16 10:52:43;;;;;;;15.93;13.65;;;;;;;27.24;50.91;100726.03;5034876;28;20025;-79
2022/08/16 10:55:11;;;;;;;14.10;12.60;;;;;;;27.40;50.05;100730.59;5039381;28;20037;-78
2022/08/16 10:57:36;;;;;;;14.18;12.77;;;;;;;27.41;49.65;100737.56;5046899;28;20025;-78
2022/08/16 11:00:08;;;;;;;15.07;13.57;;;;;;;27.14;49.52;100737.31;5047022;28;20435;-79
2022/08/16 11:02:33;;;;;;;14.48;13.00;;;;;;;27.21;48.62;100731.84;5029861;28;20028;-79
2022/08/16 11:04:59;;;;;;;17.60;15.98;;;;;;;27.15;49.11;100738.13;5037667;28;20095;-79
2022/08/16 11:07:24;;;;;;;14.50;12.98;;;;;;;27.17;49.98;100720.84;5041690;28;20041;-79
2022/08/16 11:09:49;;;;;;;15.50;13.77;;;;;;;27.21;49.52;100726.53;5045443;28;20404;-79